Time;durP1;ratioP1;P1;durP2;ratioP2;P2;SDS_P1;SDS_P2;PMS_P1;PMS_P2;Temp;Humidity;BMP_temperature;BMP_pressure;BME280_temperature;BME280_humidity;BME280_pressure;Samples;Min_cycle;Max_cycle;Signal;HPM_P1;HPM_P2
2023/12/03 00:00:53;;;;;;;21.05;12.95;;;;;;;;;;4984446;28;20180;-78
2023/12/03 00:03:20;;;;;;;28.15;14.65;;;;;;;;;;4985092;28;20645;-78
2023/12/03 00:05:46;;;;;;;29.15;12.13;;;;;;;;;;4984105;28;20560;-78
2023/12/03 00:08:13;;;;;;;20.35;13.48;;;;;;;;;;4984858;28;20270;-77
2023/12/03 00:10:39;;;;;;;24.75;13.85;;;;;;;;;;4983761;28;20574;-78
2023/12/03 00:13:05;;;;;;;23.98;13.88;;;;;;;;;;4984309;28;20712;-78
2023/12/03 00:15:31;;;;;;;25.17;12.57;;;;;;;;;;4984213;28;20188;-78
2023/12/03 00:17:57;;;;;;;20.07;11.40;;;;;;;;;;4984164;28;20427;-78
2023/12/03 00:20:23;;;;;;;30.08;12.40;;;;;;;;;;4985328;28;20809;-77
2023/12/03 00:22:49;;;;;;;22.10;14.13;;;;;;;;;;4983871;28;20184;-78
2023/12/03 00:25:15;;;;;;;22.40;13.40;;;;;;;;;;4984428;28;20978;-77
2023/12/03 00:27:41;;;;;;;21.30;11.75;;;;;;;;;;4983779;28;20517;-78
2023/12/03 00:30:08;;;;;;;25.58;13.25;;;;;;;;;;4983691;28;20642;-78
2023/12/03 00:32:34;;;;;;;25.63;13.35;;;;;;;;;;4984052;28;20195;-78
2023/12/03 00:35:00;;;;;;;21.38;12.90;;;;;;;;;;4984220;28;20532;-78
2023/12/03 00:37:25;;;;;;;19.87;12.17;;;;;;;;;;4983755;28;20191;-78
2023/12/03 00:39:51;;;;;;;24.20;12.30;;;;;;;;;;4984419;28;20511;-78
2023/12/03 00:42:17;;;;;;;19.98;12.13;;;;;;;;;;4984415;28;20186;-78
2023/12/03 00:44:43;;;;;;;22.33;12.37;;;;;;;;;;4982671;28;20192;-78
2023/12/03 00:47:09;;;;;;;25.45;14.82;;;;;;;;;;4982960;28;20513;-77
2023/12/03 00:49:35;;;;;;;27.57;12.40;;;;;;;;;;4983314;28;20238;-78
2023/12/03 00:52:01;;;;;;;24.83;11.90;;;;;;;;;;4984779;28;20412;-78
2023/12/03 00:54:27;;;;;;;24.17;14.40;;;;;;;;;;4984136;28;20503;-78
2023/12/03 00:56:53;;;;;;;22.40;12.73;;;;;;;;;;4983165;28;20943;-78
2023/12/03 00:59:19;;;;;;;20.33;11.70;;;;;;;;;;4983567;28;20415;-79
2023/12/03 01:01:45;;;;;;;26.48;12.23;;;;;;;;;;4983396;28;20419;-78
2023/12/03 01:04:11;;;;;;;22.00;12.57;;;;;;;;;;4983623;28;20179;-78
2023/12/03 01:06:37;;;;;;;24.27;14.30;;;;;;;;;;4982032;28;20474;-79
2023/12/03 01:09:03;;;;;;;25.23;13.32;;;;;;;;;;4983865;28;20404;-78
2023/12/03 01:11:29;;;;;;;20.23;12.38;;;;;;;;;;4983535;28;20177;-78
2023/12/03 01:13:55;;;;;;;28.30;14.20;;;;;;;;;;4983122;28;20180;-78
2023/12/03 01:16:21;;;;;;;26.40;13.87;;;;;;;;;;4983567;28;20911;-78
2023/12/03 01:18:46;;;;;;;21.97;12.07;;;;;;;;;;4982136;28;20912;-78
2023/12/03 01:21:13;;;;;;;22.57;13.27;;;;;;;;;;4983256;28;20431;-78
2023/12/03 01:23:39;;;;;;;24.15;12.60;;;;;;;;;;4983105;28;20423;-78
2023/12/03 01:26:05;;;;;;;27.87;13.03;;;;;;;;;;4983102;28;20183;-79
2023/12/03 01:28:31;;;;;;;21.35;11.90;;;;;;;;;;4982716;28;20805;-78
2023/12/03 01:30:57;;;;;;;25.90;13.30;;;;;;;;;;4983488;28;20186;-78
2023/12/03 01:33:23;;;;;;;22.77;12.93;;;;;;;;;;4983354;28;20407;-78
2023/12/03 01:35:49;;;;;;;19.67;12.60;;;;;;;;;;4982785;28;20410;-79
2023/12/03 01:38:15;;;;;;;21.93;11.70;;;;;;;;;;4982517;28;20191;-79
2023/12/03 01:40:51;;;;;;;28.52;13.77;;;;;;;;;;4982725;28;20408;-79
2023/12/03 01:43:17;;;;;;;24.38;12.75;;;;;;;;;;4983341;28;20259;-78
2023/12/03 01:45:45;;;;;;;26.08;14.07;;;;;;;;;;4983216;28;20587;-78
2023/12/03 01:48:11;;;;;;;25.35;14.07;;;;;;;;;;4982931;28;20227;-79
2023/12/03 01:50:38;;;;;;;21.48;11.63;;;;;;;;;;4982386;28;20176;-80
2023/12/03 01:53:04;;;;;;;21.17;13.63;;;;;;;;;;4982340;28;20263;-79
2023/12/03 01:55:31;;;;;;;21.20;12.00;;;;;;;;;;4982113;28;20701;-79
2023/12/03 01:57:57;;;;;;;28.88;12.93;;;;;;;;;;4982285;28;20190;-79
2023/12/03 02:00:23;;;;;;;25.63;13.00;;;;;;;;;;4982541;28;20188;-79
2023/12/03 02:02:49;;;;;;;23.13;12.32;;;;;;;;;;4982422;28;20180;-79
2023/12/03 02:05:15;;;;;;;21.23;11.75;;;;;;;;;;4981984;28;20180;-79
2023/12/03 02:07:41;;;;;;;19.25;11.77;;;;;;;;;;4981828;28;20215;-80
2023/12/03 02:10:07;;;;;;;22.03;11.90;;;;;;;;;;4982210;28;20175;-79
2023/12/03 02:12:33;;;;;;;19.65;11.98;;;;;;;;;;4981461;28;20934;-78
2023/12/03 02:15:00;;;;;;;20.27;11.02;;;;;;;;;;4982760;28;20192;-79
2023/12/03 02:17:26;;;;;;;20.98;11.07;;;;;;;;;;4981765;28;20192;-79
2023/12/03 02:19:52;;;;;;;21.55;12.02;;;;;;;;;;4981755;28;20628;-79
2023/12/03 02:22:18;;;;;;;20.90;11.37;;;;;;;;;;4982448;28;20272;-79
2023/12/03 02:24:44;;;;;;;21.40;11.33;;;;;;;;;;4982258;28;20416;-79
2023/12/03 02:27:10;;;;;;;23.30;11.13;;;;;;;;;;4981531;28;20509;-79
2023/12/03 02:29:36;;;;;;;21.00;12.23;;;;;;;;;;5013671;28;20885;-80
2023/12/03 02:32:02;;;;;;;25.23;13.13;;;;;;;;;;4981972;28;20764;-79
2023/12/03 02:34:28;;;;;;;16.58;9.50;;;;;;;;;;5013819;28;20418;-79
2023/12/03 02:36:54;;;;;;;23.38;12.13;;;;;;;;;;4981209;28;20184;-79
2023/12/03 02:39:20;;;;;;;22.13;12.30;;;;;;;;;;4981082;28;20191;-79
2023/12/03 02:41:46;;;;;;;21.10;11.33;;;;;;;;;;4981747;28;20411;-79
2023/12/03 02:44:12;;;;;;;24.60;12.47;;;;;;;;;;4982064;28;20408;-79
2023/12/03 02:46:38;;;;;;;20.03;11.53;;;;;;;;;;4980912;28;20890;-80
2023/12/03 02:49:04;;;;;;;16.70;10.10;;;;;;;;;;4980002;28;20423;-79
2023/12/03 02:51:30;;;;;;;15.30;8.80;;;;;;;;;;4981492;28;20207;-79
2023/12/03 02:53:55;;;;;;;16.60;10.70;;;;;;;;;;4981831;28;20418;-79
2023/12/03 02:56:21;;;;;;;18.50;10.93;;;;;;;;;;4981893;28;20637;-79
2023/12/03 02:58:47;;;;;;;16.10;10.30;;;;;;;;;;4981971;28;20925;-79
2023/12/03 03:01:13;;;;;;;25.17;12.17;;;;;;;;;;4981975;28;20447;-79
2023/12/03 03:03:39;;;;;;;21.40;12.32;;;;;;;;;;4981510;28;20430;-80
2023/12/03 03:06:05;;;;;;;20.57;10.90;;;;;;;;;;4981329;28;20184;-79
2023/12/03 03:08:31;;;;;;;19.15;10.57;;;;;;;;;;4981720;28;20476;-79
2023/12/03 03:10:57;;;;;;;16.20;9.93;;;;;;;;;;4983114;28;20187;-79
2023/12/03 03:13:23;;;;;;;20.10;10.20;;;;;;;;;;4985754;28;20415;-79
2023/12/03 03:15:49;;;;;;;18.70;11.07;;;;;;;;;;4985106;28;20184;-79
2023/12/03 03:18:15;;;;;;;20.90;11.65;;;;;;;;;;4985060;28;20453;-79
2023/12/03 03:20:41;;;;;;;17.50;9.97;;;;;;;;;;4985121;28;20291;-79
2023/12/03 03:23:07;;;;;;;21.90;11.48;;;;;;;;;;4985337;28;20737;-79
2023/12/03 03:25:33;;;;;;;20.67;9.52;;;;;;;;;;4985065;28;20186;-79
2023/12/03 03:27:59;;;;;;;16.97;9.63;;;;;;;;;;4985169;28;20230;-79
2023/12/03 03:30:25;;;;;;;20.00;10.97;;;;;;;;;;4985517;28;20427;-79
2023/12/03 03:32:51;;;;;;;19.73;10.80;;;;;;;;;;4985136;28;20417;-79
2023/12/03 03:35:17;;;;;;;19.90;10.10;;;;;;;;;;4984670;28;20448;-79
2023/12/03 03:37:43;;;;;;;17.37;10.27;;;;;;;;;;4984509;28;20510;-80
2023/12/03 03:40:09;;;;;;;20.98;10.27;;;;;;;;;;4984301;28;20772;-79
2023/12/03 03:42:35;;;;;;;17.73;10.23;;;;;;;;;;4984494;28;20527;-79
2023/12/03 03:45:01;;;;;;;20.33;10.30;;;;;;;;;;4983808;28;20187;-79
2023/12/03 03:47:27;;;;;;;18.88;9.60;;;;;;;;;;4983850;28;20215;-80
2023/12/03 03:49:53;;;;;;;14.38;8.88;;;;;;;;;;4983944;28;20199;-79
2023/12/03 03:52:19;;;;;;;15.27;9.60;;;;;;;;;;4984596;28;20547;-79
2023/12/03 03:54:45;;;;;;;16.33;9.50;;;;;;;;;;4984445;28;20404;-80
2023/12/03 03:57:11;;;;;;;13.63;9.33;;;;;;;;;;4985009;28;20194;-79
2023/12/03 03:59:37;;;;;;;17.70;10.13;;;;;;;;;;4984175;28;20431;-79
2023/12/03 04:02:03;;;;;;;18.27;10.70;;;;;;;;;;5016075;28;20184;-79
2023/12/03 04:04:29;;;;;;;21.08;11.20;;;;;;;;;;4985243;28;20614;-79
2023/12/03 04:06:55;;;;;;;18.10;11.50;;;;;;;;;;4984339;28;20196;-79
2023/12/03 04:09:21;;;;;;;24.97;11.27;;;;;;;;;;4983811;28;20403;-79
2023/12/03 04:11:47;;;;;;;17.67;11.15;;;;;;;;;;4983901;28;20888;-80
2023/12/03 04:14:16;;;;;;;17.40;10.30;;;;;;;;;;4984068;28;20199;-79
2023/12/03 04:16:42;;;;;;;20.52;10.93;;;;;;;;;;4983773;28;20242;-80
2023/12/03 04:19:08;;;;;;;24.67;10.90;;;;;;;;;;4984066;28;20179;-79
2023/12/03 04:21:36;;;;;;;19.30;10.93;;;;;;;;;;4983400;28;20187;-79
2023/12/03 04:24:02;;;;;;;18.83;11.10;;;;;;;;;;4983873;28;20194;-79
2023/12/03 04:26:28;;;;;;;27.98;12.55;;;;;;;;;;4983325;28;20232;-79
2023/12/03 04:28:54;;;;;;;22.15;10.80;;;;;;;;;;4983413;28;20639;-79
2023/12/03 04:31:25;;;;;;;16.57;9.77;;;;;;;;;;4983217;28;20176;-79
2023/12/03 04:33:51;;;;;;;20.92;10.80;;;;;;;;;;4983419;28;20399;-79
2023/12/03 04:36:18;;;;;;;20.13;10.82;;;;;;;;;;4983352;28;20206;-79
2023/12/03 04:38:44;;;;;;;19.25;10.82;;;;;;;;;;4982877;28;20246;-80
2023/12/03 04:41:10;;;;;;;16.20;10.02;;;;;;;;;;4983459;28;20212;-79
2023/12/03 04:43:36;;;;;;;16.90;10.32;;;;;;;;;;4984019;28;20175;-79
2023/12/03 04:46:05;;;;;;;20.00;10.13;;;;;;;;;;4981609;28;20261;-79
2023/12/03 04:48:32;;;;;;;17.67;9.85;;;;;;;;;;4983634;28;20215;-79
2023/12/03 04:50:58;;;;;;;18.50;10.90;;;;;;;;;;4983223;28;20186;-80
2023/12/03 04:53:24;;;;;;;19.45;11.32;;;;;;;;;;4983329;28;20189;-79
2023/12/03 04:55:50;;;;;;;21.80;11.30;;;;;;;;;;4983503;28;20739;-79
2023/12/03 04:58:16;;;;;;;18.13;10.23;;;;;;;;;;4983683;28;20184;-79
2023/12/03 05:00:42;;;;;;;17.73;10.30;;;;;;;;;;4982917;28;20176;-79
2023/12/03 05:03:08;;;;;;;15.00;9.17;;;;;;;;;;4982251;28;20420;-79
2023/12/03 05:05:34;;;;;;;18.00;9.03;;;;;;;;;;4982564;28;20411;-79
2023/12/03 05:08:00;;;;;;;16.05;9.75;;;;;;;;;;4982316;28;20507;-79
2023/12/03 05:10:26;;;;;;;18.23;8.70;;;;;;;;;;4983120;28;20184;-79
2023/12/03 05:12:52;;;;;;;17.83;8.93;;;;;;;;;;4982541;28;20392;-79
2023/12/03 05:15:18;;;;;;;13.90;8.07;;;;;;;;;;4982799;28;20220;-79
2023/12/03 05:17:44;;;;;;;15.55;7.32;;;;;;;;;;4981955;28;20586;-79
2023/12/03 05:20:10;;;;;;;13.30;8.47;;;;;;;;;;4982432;28;20214;-79
2023/12/03 05:22:36;;;;;;;20.95;9.60;;;;;;;;;;4982825;28;20414;-79
2023/12/03 05:25:02;;;;;;;16.67;8.87;;;;;;;;;;4982338;28;20210;-79
2023/12/03 05:27:28;;;;;;;16.83;9.82;;;;;;;;;;4982473;28;20479;-79
2023/12/03 05:29:54;;;;;;;19.25;9.93;;;;;;;;;;4982385;28;20258;-79
2023/12/03 05:32:20;;;;;;;17.83;9.70;;;;;;;;;;4964771;28;20181;-79
2023/12/03 05:34:46;;;;;;;17.20;9.77;;;;;;;;;;4982262;28;20416;-81
2023/12/03 05:37:13;;;;;;;18.63;10.60;;;;;;;;;;4981947;28;20733;-79
2023/12/03 05:39:39;;;;;;;17.88;10.30;;;;;;;;;;4982182;28;20174;-79
2023/12/03 05:42:05;;;;;;;17.50;10.18;;;;;;;;;;4982254;28;20166;-78
2023/12/03 05:44:31;;;;;;;21.08;10.38;;;;;;;;;;4981708;28;20505;-79
2023/12/03 05:46:57;;;;;;;17.90;8.87;;;;;;;;;;4980848;28;20216;-79
2023/12/03 05:49:23;;;;;;;22.40;11.50;;;;;;;;;;4981871;28;20455;-79
2023/12/03 05:51:49;;;;;;;20.70;10.75;;;;;;;;;;4982365;28;20180;-79
2023/12/03 05:54:16;;;;;;;20.70;10.63;;;;;;;;;;4982440;28;20178;-79
2023/12/03 05:56:41;;;;;;;18.77;10.02;;;;;;;;;;4982570;28;20173;-79
2023/12/03 05:59:07;;;;;;;20.03;9.53;;;;;;;;;;4981802;28;20714;-79
2023/12/03 06:01:33;;;;;;;19.65;10.63;;;;;;;;;;4981735;28;20422;-79
2023/12/03 06:04:06;;;;;;;16.65;8.68;;;;;;;;;;4982199;28;20644;-79
2023/12/03 06:06:32;;;;;;;21.92;11.35;;;;;;;;;;4981890;28;20172;-79
2023/12/03 06:08:58;;;;;;;22.33;10.13;;;;;;;;;;4981407;28;20633;-79
2023/12/03 06:11:23;;;;;;;19.40;9.53;;;;;;;;;;4981860;28;20478;-79
2023/12/03 06:13:49;;;;;;;16.63;9.20;;;;;;;;;;4982182;28;20411;-80
2023/12/03 06:16:15;;;;;;;22.77;9.10;;;;;;;;;;4981636;28;20416;-78
2023/12/03 06:18:43;;;;;;;16.08;8.25;;;;;;;;;;4982271;28;20467;-78
2023/12/03 06:21:09;;;;;;;15.95;9.02;;;;;;;;;;4982496;28;20186;-79
2023/12/03 06:23:36;;;;;;;17.67;8.88;;;;;;;;;;4981706;28;20213;-78
2023/12/03 06:26:02;;;;;;;14.13;8.52;;;;;;;;;;4981629;28;20184;-79
2023/12/03 06:28:28;;;;;;;14.35;7.60;;;;;;;;;;4982128;28;20208;-78
2023/12/03 06:30:54;;;;;;;19.52;10.90;;;;;;;;;;4981747;28;20190;-79
2023/12/03 06:33:20;;;;;;;16.95;10.18;;;;;;;;;;4981977;28;20215;-79
2023/12/03 06:35:46;;;;;;;19.23;10.25;;;;;;;;;;4981338;28;20176;-79
2023/12/03 06:38:12;;;;;;;18.23;10.98;;;;;;;;;;4982158;28;20214;-79
2023/12/03 06:40:38;;;;;;;17.38;10.80;;;;;;;;;;4981711;28;20187;-79
2023/12/03 06:43:04;;;;;;;20.63;11.60;;;;;;;;;;4979862;28;20520;-82
2023/12/03 06:45:30;;;;;;;19.70;10.33;;;;;;;;;;4983447;28;20185;-82
2023/12/03 06:47:56;;;;;;;21.37;9.97;;;;;;;;;;4983013;28;20971;-83
2023/12/03 06:50:22;;;;;;;19.63;9.38;;;;;;;;;;4981814;28;20438;-82
2023/12/03 06:52:48;;;;;;;22.20;11.67;;;;;;;;;;4983200;28;20180;-82
2023/12/03 06:55:14;;;;;;;24.40;11.57;;;;;;;;;;4982685;28;20840;-82
2023/12/03 06:57:40;;;;;;;21.35;11.02;;;;;;;;;;4983357;28;20245;-82
2023/12/03 07:00:06;;;;;;;18.80;9.60;;;;;;;;;;4983291;28;20270;-82
2023/12/03 07:02:33;;;;;;;21.95;12.60;;;;;;;;;;4981672;28;20772;-82
2023/12/03 07:04:59;;;;;;;21.65;11.50;;;;;;;;;;5013940;28;20258;-83
2023/12/03 07:07:25;;;;;;;24.52;12.05;;;;;;;;;;4982738;28;20208;-82
2023/12/03 07:09:51;;;;;;;26.83;13.13;;;;;;;;;;4982043;28;20231;-82
2023/12/03 07:12:17;;;;;;;21.10;11.50;;;;;;;;;;4982862;28;20176;-81
2023/12/03 07:14:43;;;;;;;19.63;11.00;;;;;;;;;;4982813;28;20198;-82
2023/12/03 07:17:09;;;;;;;20.33;8.75;;;;;;;;;;4982360;28;20188;-82
2023/12/03 07:19:35;;;;;;;17.33;9.60;;;;;;;;;;4981438;28;20199;-82
2023/12/03 07:22:01;;;;;;;20.02;10.70;;;;;;;;;;4981721;28;20424;-82
2023/12/03 07:24:27;;;;;;;19.70;11.17;;;;;;;;;;4983077;28;20263;-82
2023/12/03 07:26:53;;;;;;;20.25;10.65;;;;;;;;;;5013622;28;20487;-82
2023/12/03 07:29:19;;;;;;;27.85;13.52;;;;;;;;;;4983567;28;20639;-82
2023/12/03 07:31:45;;;;;;;24.40;13.77;;;;;;;;;;4983034;28;20179;-82
2023/12/03 07:34:11;;;;;;;22.20;12.10;;;;;;;;;;4982824;28;20177;-83
2023/12/03 07:36:37;;;;;;;20.80;10.52;;;;;;;;;;4982048;28;20211;-82
2023/12/03 07:39:03;;;;;;;20.40;11.18;;;;;;;;;;4982726;28;20565;-85
2023/12/03 07:41:31;;;;;;;22.58;10.52;;;;;;;;;;4980598;28;20180;-83
2023/12/03 07:43:57;;;;;;;17.23;10.70;;;;;;;;;;4981891;28;20203;-84
2023/12/03 07:46:23;;;;;;;21.83;11.37;;;;;;;;;;4982500;28;20237;-82
2023/12/03 07:48:49;;;;;;;22.65;10.13;;;;;;;;;;5013913;28;20491;-81
2023/12/03 07:51:14;;;;;;;18.97;9.47;;;;;;;;;;4982030;28;20192;-81
2023/12/03 07:53:40;;;;;;;16.08;9.70;;;;;;;;;;4982514;28;20915;-79
2023/12/03 07:56:07;;;;;;;18.83;10.45;;;;;;;;;;4983112;28;20238;-80
2023/12/03 07:58:34;;;;;;;21.23;11.40;;;;;;;;;;4982267;28;20180;-80
2023/12/03 08:01:00;;;;;;;23.10;11.52;;;;;;;;;;4981891;28;20188;-80
2023/12/03 08:03:26;;;;;;;19.83;10.80;;;;;;;;;;4981289;28;20178;-81
2023/12/03 08:05:52;;;;;;;23.83;11.57;;;;;;;;;;4980884;28;20185;-81
2023/12/03 08:08:18;;;;;;;20.60;11.85;;;;;;;;;;4981305;28;20199;-80
2023/12/03 08:10:44;;;;;;;21.80;11.30;;;;;;;;;;4981962;28;20238;-80
2023/12/03 08:13:10;;;;;;;24.02;11.73;;;;;;;;;;4981740;28;20185;-80
2023/12/03 08:15:36;;;;;;;22.02;10.48;;;;;;;;;;4982484;28;20180;-80
2023/12/03 08:18:03;;;;;;;23.37;11.80;;;;;;;;;;4981906;28;20195;-83
2023/12/03 08:20:29;;;;;;;22.45;13.13;;;;;;;;;;4982044;28;20410;-80
2023/12/03 08:22:54;;;;;;;24.17;11.52;;;;;;;;;;4982657;28;20176;-81
2023/12/03 08:25:20;;;;;;;25.33;12.87;;;;;;;;;;4981178;28;20190;-80
2023/12/03 08:27:46;;;;;;;23.27;12.40;;;;;;;;;;4980980;28;20484;-80
2023/12/03 08:30:13;;;;;;;22.05;11.50;;;;;;;;;;4980482;28;20640;-80
2023/12/03 08:32:39;;;;;;;21.77;11.43;;;;;;;;;;4980283;28;20215;-80
2023/12/03 08:35:05;;;;;;;20.93;11.67;;;;;;;;;;4981781;28;20184;-79
2023/12/03 08:37:31;;;;;;;22.80;12.45;;;;;;;;;;4980711;28;20896;-79
2023/12/03 08:40:00;;;;;;;23.02;12.13;;;;;;;;;;4981100;28;20183;-80
2023/12/03 08:42:26;;;;;;;19.25;10.50;;;;;;;;;;4982343;28;20531;-79
2023/12/03 08:44:52;;;;;;;23.27;12.47;;;;;;;;;;4982186;28;20184;-78
2023/12/03 08:47:18;;;;;;;26.33;12.68;;;;;;;;;;4982208;28;20471;-79
2023/12/03 08:49:44;;;;;;;30.25;13.77;;;;;;;;;;4982781;28;20184;-79
2023/12/03 08:52:11;;;;;;;25.08;11.82;;;;;;;;;;4981891;28;20215;-80
2023/12/03 08:54:37;;;;;;;23.33;11.43;;;;;;;;;;4982541;28;20173;-79
2023/12/03 08:57:04;;;;;;;22.65;11.75;;;;;;;;;;4982059;28;20193;-79
2023/12/03 08:59:30;;;;;;;21.20;11.45;;;;;;;;;;4981442;28;20176;-79
2023/12/03 09:01:56;;;;;;;21.85;11.65;;;;;;;;;;4982573;28;20280;-80
2023/12/03 09:04:22;;;;;;;21.50;11.25;;;;;;;;;;4982224;28;20179;-80
2023/12/03 09:06:48;;;;;;;24.93;10.80;;;;;;;;;;4982331;28;20190;-80
2023/12/03 09:09:14;;;;;;;19.23;11.20;;;;;;;;;;4981794;28;20427;-81
2023/12/03 09:11:43;;;;;;;20.63;12.32;;;;;;;;;;4982787;28;20184;-79
2023/12/03 09:14:09;;;;;;;20.13;10.35;;;;;;;;;;4982604;28;20180;-79
2023/12/03 09:16:35;;;;;;;21.73;10.25;;;;;;;;;;4982274;28;20214;-80
2023/12/03 09:19:01;;;;;;;21.85;11.77;;;;;;;;;;5013254;28;20184;-80
2023/12/03 09:21:27;;;;;;;23.30;10.73;;;;;;;;;;4983610;28;20211;-80
2023/12/03 09:23:54;;;;;;;23.23;11.05;;;;;;;;;;5021480;28;20186;-80
2023/12/03 09:26:20;;;;;;;22.15;12.73;;;;;;;;;;5001784;28;20251;-81
2023/12/03 09:28:46;;;;;;;23.60;10.60;;;;;;;;;;5001849;28;20652;-80
2023/12/03 09:31:12;;;;;;;17.03;10.27;;;;;;;;;;5001692;28;20419;-79
2023/12/03 09:33:38;;;;;;;20.60;11.70;;;;;;;;;;5001208;28;20413;-79
2023/12/03 09:36:04;;;;;;;14.07;9.63;;;;;;;;;;5001257;28;20262;-80
2023/12/03 09:38:30;;;;;;;17.48;10.00;;;;;;;;;;5001711;28;20438;-80
2023/12/03 09:41:01;;;;;;;18.60;9.52;;;;;;;;;;4995844;28;20180;-79
2023/12/03 09:43:28;;;;;;;14.73;9.57;;;;;;;;;;4983136;28;20243;-79
2023/12/03 09:45:56;;;;;;;15.75;8.60;;;;;;;;;;4985898;28;20181;-80
2023/12/03 09:48:22;;;;;;;18.50;9.07;;;;;;;;;;5001415;28;20228;-79
2023/12/03 09:50:50;;;;;;;14.52;8.65;;;;;;;;;;5001505;28;20540;-79
2023/12/03 09:53:17;;;;;;;14.75;8.13;;;;;;;;;;5001457;28;20180;-80
2023/12/03 09:55:44;;;;;;;18.33;9.77;;;;;;;;;;4993251;28;20174;-79
2023/12/03 09:58:11;;;;;;;14.40;8.65;;;;;;;;;;4981953;28;20235;-80
2023/12/03 10:00:40;;;;;;;15.18;7.93;;;;;;;;;;4992581;28;20742;-79
2023/12/03 10:03:08;;;;;;;17.50;9.40;;;;;;;;;;5001460;28;20194;-80
2023/12/03 10:05:34;;;;;;;14.02;8.95;;;;;;;;;;5001891;28;20180;-80
2023/12/03 10:08:00;;;;;;;16.98;7.85;;;;;;;;;;5001834;28;20211;-79
2023/12/03 10:10:31;;;;;;;12.52;7.45;;;;;;;;;;5001546;28;20186;-79
2023/12/03 10:12:58;;;;;;;12.43;8.48;;;;;;;;;;5001795;28;20162;-79
2023/12/03 10:15:25;;;;;;;14.77;8.73;;;;;;;;;;5000916;28;20190;-80
2023/12/03 10:17:51;;;;;;;13.98;8.32;;;;;;;;;;5000539;28;20171;-81
2023/12/03 10:20:20;;;;;;;10.45;6.53;;;;;;;;;;5002997;28;20697;-81
2023/12/03 10:22:46;;;;;;;13.13;9.35;;;;;;;;;;5005196;28;20179;-81
2023/12/03 10:25:25;;;;;;;12.43;6.97;;;;;;;;;;5004586;28;20241;-81
2023/12/03 10:27:52;;;;;;;13.63;7.22;;;;;;;;;;5003696;28;20260;-81
2023/12/03 10:30:18;;;;;;;15.77;9.20;;;;;;;;;;5004386;28;20212;-80
2023/12/03 10:32:45;;;;;;;18.77;10.37;;;;;;;;;;5003632;28;20179;-81
2023/12/03 10:35:11;;;;;;;11.57;7.10;;;;;;;;;;5001970;28;20453;-80
2023/12/03 10:37:38;;;;;;;14.38;9.10;;;;;;;;;;5002886;28;20194;-80
2023/12/03 10:40:04;;;;;;;10.07;6.80;;;;;;;;;;4988308;28;20563;-80
2023/12/03 10:42:33;;;;;;;12.90;7.47;;;;;;;;;;4984830;28;20231;-80
2023/12/03 10:45:06;;;;;;;10.50;6.97;;;;;;;;;;4985107;28;20663;-79
2023/12/03 10:47:32;;;;;;;16.38;8.45;;;;;;;;;;4985291;28;20234;-80
2023/12/03 10:50:00;;;;;;;13.77;8.23;;;;;;;;;;4984003;28;20180;-80
2023/12/03 10:52:26;;;;;;;11.93;7.38;;;;;;;;;;4983161;28;20192;-79
2023/12/03 10:54:52;;;;;;;12.18;8.20;;;;;;;;;;4984514;28;20224;-80
2023/12/03 10:57:19;;;;;;;14.83;8.93;;;;;;;;;;4999182;28;20629;-80
2023/12/03 10:59:46;;;;;;;15.85;8.18;;;;;;;;;;4984194;28;20399;-80
2023/12/03 11:02:13;;;;;;;16.00;8.23;;;;;;;;;;4984515;28;20183;-80
2023/12/03 11:04:42;;;;;;;14.52;7.90;;;;;;;;;;4984392;28;20179;-80
2023/12/03 11:07:08;;;;;;;12.40;7.45;;;;;;;;;;4982598;28;20204;-81
2023/12/03 11:09:39;;;;;;;15.20;7.47;;;;;;;;;;4983253;28;20176;-80
2023/12/03 11:12:08;;;;;;;17.67;7.72;;;;;;;;;;4983171;28;20172;-80
2023/12/03 11:14:34;;;;;;;12.32;7.30;;;;;;;;;;4982830;28;20172;-80
2023/12/03 11:17:05;;;;;;;13.00;7.25;;;;;;;;;;4983108;28;20188;-80
2023/12/03 11:19:32;;;;;;;13.60;8.15;;;;;;;;;;4983616;28;20528;-79
2023/12/03 11:22:16;;;;;;;14.13;7.90;;;;;;;;;;4983148;28;20227;-80
2023/12/03 11:24:42;;;;;;;11.65;6.88;;;;;;;;;;4982972;28;20259;-80
2023/12/03 11:27:08;;;;;;;15.03;8.70;;;;;;;;;;4983108;28;20254;-81
2023/12/03 11:29:48;;;;;;;11.23;7.00;;;;;;;;;;4984800;28;20405;-80
2023/12/03 11:32:14;;;;;;;9.38;7.35;;;;;;;;;;4981877;28;20815;-81
2023/12/03 11:34:40;;;;;;;8.98;6.65;;;;;;;;;;4982631;28;20180;-80
2023/12/03 11:37:09;;;;;;;12.23;7.33;;;;;;;;;;4982521;28;20581;-80
2023/12/03 11:39:37;;;;;;;25.85;7.03;;;;;;;;;;4982919;28;20411;-80
2023/12/03 11:42:06;;;;;;;11.52;7.22;;;;;;;;;;4983721;28;20207;-80
2023/12/03 11:44:32;;;;;;;13.45;7.35;;;;;;;;;;4983079;28;20177;-80
2023/12/03 11:47:08;;;;;;;9.40;6.10;;;;;;;;;;4983181;28;20219;-80
2023/12/03 11:49:34;;;;;;;10.55;7.32;;;;;;;;;;4981480;28;20217;-80
2023/12/03 11:52:01;;;;;;;12.63;7.60;;;;;;;;;;4982243;28;20176;-79
2023/12/03 11:54:36;;;;;;;14.05;7.75;;;;;;;;;;4982837;28;20208;-80
2023/12/03 11:57:02;;;;;;;12.50;7.68;;;;;;;;;;4982687;28;20527;-80
2023/12/03 11:59:28;;;;;;;11.70;7.57;;;;;;;;;;4982296;28;20180;-79
2023/12/03 12:01:54;;;;;;;12.30;6.77;;;;;;;;;;4982489;28;20404;-80
2023/12/03 12:04:21;;;;;;;12.18;8.35;;;;;;;;;;4982321;28;20413;-79
2023/12/03 12:06:47;;;;;;;14.38;8.20;;;;;;;;;;4982567;28;20177;-79
2023/12/03 12:09:20;;;;;;;11.63;7.55;;;;;;;;;;4982188;28;20264;-80
2023/12/03 12:11:48;;;;;;;10.27;7.05;;;;;;;;;;4982308;28;20647;-79
2023/12/03 12:14:14;;;;;;;11.43;8.35;;;;;;;;;;4982179;28;20188;-80
2023/12/03 12:16:40;;;;;;;10.13;6.53;;;;;;;;;;4982152;28;20531;-79
2023/12/03 12:19:06;;;;;;;11.65;8.25;;;;;;;;;;4981874;28;20180;-80
2023/12/03 12:21:32;;;;;;;16.13;8.30;;;;;;;;;;4982049;28;20180;-80
2023/12/03 12:23:58;;;;;;;12.23;7.00;;;;;;;;;;4982166;28;20419;-80
2023/12/03 12:26:24;;;;;;;13.25;7.97;;;;;;;;;;4981027;28;20836;-79
2023/12/03 12:28:50;;;;;;;10.88;7.38;;;;;;;;;;4981288;28;20219;-79
2023/12/03 12:31:19;;;;;;;13.20;7.75;;;;;;;;;;4981978;28;20169;-80
2023/12/03 12:33:45;;;;;;;14.32;7.63;;;;;;;;;;4981942;28;20202;-80
2023/12/03 12:36:11;;;;;;;11.48;6.40;;;;;;;;;;4981583;28;20209;-79
2023/12/03 12:38:41;;;;;;;7.85;5.80;;;;;;;;;;4981778;28;20188;-79
2023/12/03 12:41:07;;;;;;;13.65;7.60;;;;;;;;;;4981320;28;20188;-80
2023/12/03 12:43:33;;;;;;;10.15;7.25;;;;;;;;;;4981921;28;20215;-80
2023/12/03 12:46:09;;;;;;;10.47;6.07;;;;;;;;;;4980448;28;20189;-79
2023/12/03 12:48:35;;;;;;;10.93;7.00;;;;;;;;;;4981264;28;20492;-80
2023/12/03 12:51:02;;;;;;;11.80;6.90;;;;;;;;;;4981879;28;20184;-79
2023/12/03 12:53:47;;;;;;;13.73;7.95;;;;;;;;;;4981380;28;20412;-80
2023/12/03 12:56:13;;;;;;;12.70;8.23;;;;;;;;;;4981058;28;20176;-82
2023/12/03 12:58:39;;;;;;;13.40;7.40;;;;;;;;;;4981773;28;20262;-79
2023/12/03 13:01:05;;;;;;;11.18;7.15;;;;;;;;;;4981044;28;20412;-79
2023/12/03 13:03:31;;;;;;;10.32;7.10;;;;;;;;;;4980771;28;20236;-79
2023/12/03 13:05:57;;;;;;;9.50;6.83;;;;;;;;;;4979780;28;20188;-80
2023/12/03 13:08:23;;;;;;;11.10;7.30;;;;;;;;;;4980380;28;20469;-80
2023/12/03 13:10:49;;;;;;;11.10;7.30;;;;;;;;;;4980951;28;20411;-80
2023/12/03 13:13:15;;;;;;;13.63;9.60;;;;;;;;;;4980903;28;20255;-81
2023/12/03 13:15:41;;;;;;;12.75;9.32;;;;;;;;;;4980661;28;20430;-80
2023/12/03 13:18:08;;;;;;;13.82;7.95;;;;;;;;;;4979933;28;20199;-79
2023/12/03 13:20:34;;;;;;;12.00;6.93;;;;;;;;;;4980081;28;20585;-80
2023/12/03 13:22:59;;;;;;;15.00;8.75;;;;;;;;;;4980902;28;20181;-79
2023/12/03 13:25:25;;;;;;;12.07;8.25;;;;;;;;;;4980815;28;20176;-79
2023/12/03 13:27:51;;;;;;;14.93;9.40;;;;;;;;;;4980827;28;20594;-79
2023/12/03 13:30:17;;;;;;;14.90;9.33;;;;;;;;;;4980496;28;20413;-79
2023/12/03 13:32:44;;;;;;;12.88;8.00;;;;;;;;;;4980537;28;20447;-79
2023/12/03 13:35:12;;;;;;;16.65;8.18;;;;;;;;;;4979923;28;20176;-79
2023/12/03 13:37:38;;;;;;;15.35;8.57;;;;;;;;;;4980471;28;20247;-79
2023/12/03 13:40:06;;;;;;;15.23;10.52;;;;;;;;;;4980277;28;20189;-80
2023/12/03 13:42:32;;;;;;;14.07;8.60;;;;;;;;;;4980125;28;20267;-80
2023/12/03 13:45:00;;;;;;;13.32;8.80;;;;;;;;;;4980813;28;20600;-79
2023/12/03 13:47:26;;;;;;;13.70;8.73;;;;;;;;;;4979892;28;20221;-79
2023/12/03 13:49:52;;;;;;;11.37;8.17;;;;;;;;;;4980422;28;20186;-79
2023/12/03 13:52:20;;;;;;;14.37;8.73;;;;;;;;;;4979912;28;20477;-80
2023/12/03 13:54:47;;;;;;;11.75;7.90;;;;;;;;;;4979894;28;20491;-79
2023/12/03 13:57:14;;;;;;;14.98;9.63;;;;;;;;;;4980176;28;20179;-79
2023/12/03 13:59:41;;;;;;;14.63;9.15;;;;;;;;;;4980167;28;20207;-79
2023/12/03 14:02:09;;;;;;;13.90;8.27;;;;;;;;;;4980264;28;20727;-79
2023/12/03 14:04:35;;;;;;;16.17;9.20;;;;;;;;;;4980199;28;20625;-79
2023/12/03 14:07:01;;;;;;;15.75;9.07;;;;;;;;;;4979960;28;20184;-79
2023/12/03 14:09:27;;;;;;;15.57;9.70;;;;;;;;;;4979886;28;20187;-80
2023/12/03 14:11:53;;;;;;;14.43;9.70;;;;;;;;;;4980192;28;20538;-79
2023/12/03 14:14:19;;;;;;;19.95;9.20;;;;;;;;;;4980388;28;20411;-80
2023/12/03 14:16:58;;;;;;;15.90;9.40;;;;;;;;;;4980079;28;20303;-79
2023/12/03 14:19:24;;;;;;;16.10;9.10;;;;;;;;;;4980024;28;20190;-80